Coeur d'Alene, ID (83814)

7:24 AM PDT on April 25, 2015 (GMT -0700)
Indian Meadows | | Change Station
CLOSE
Current Station
Personal Weather Station
Location: Coeur D'Alene, ID
Elevation: 2250 ft
Nearby Weather Stations

Elev 2250 ft 47.71 °N, 116.83 °W | Updated 36 seconds ago

Partly Cloudy
Partly Cloudy
41.2 °F
Feels Like 41 °F
N
0.0
Wind Variable Wind from East
Gusts 1.1 mph

Today
High -- | Low -- °F
--% Chance of Precip.
Yesterday
High -- | Low -- °F
Precip. -- in
5:40 AM 7:50 PM
Waxing Crescent, 46% visible
Pressure 29.86 in
Visibility 10.0 miles
Clouds Few 3800 ft
Scattered Clouds 4700 ft
Overcast 6500 ft
Windchill 41 °F
Dew Point 32 °F
Humidity 70%
Rainfall 0.00 in
Snow Depth Not available.
UV 0 out of 12
Pollen 9.90 out of 12
Air Quality Not available.
Flu Activity Sporadic
METAR KCOE 251415Z AUTO 15008KT 10SM FEW038 SCT047 OVC065 04/01 A2986 RMK AO1

More Conditions Fewer Conditions

Pressure 29.86 in
Visibility 10.0 miles
Clouds Few 3800 ft
Scattered Clouds 4700 ft
Overcast 6500 ft
Windchill 41 °F
Dew Point 32 °F
Humidity 70%
Rainfall 0.00 in
Snow Depth Not available.
UV 0 out of 12
Pollen 9.90 out of 12
Air Quality Not available.
Flu Activity Sporadic
METAR KCOE 251415Z AUTO 15008KT 10SM FEW038 SCT047 OVC065 04/01 A2986 RMK AO1

More Conditions Fewer Conditions

10-Day Weather Forecast

Almanac

Astronomy

Apr. 25, 2015 Rise Set
Actual Time
Civil Twilight
Nautical Twilight
Astronomical Twilight
Moon
Length of Visible Light
Length of Day
Tomorrow will be .
, % of the Moon is Illuminated

Today's Extremes

State Highs State Lows

Community

WunderPhotos

Upload Photos

1,816,686 photos uploaded!

WunderBlogs® & News

Nearby

Air Quality

  Air Quality AQ Index Pollutant
Not available.

Snow Depth

Station Depth Elevation

Earthquake Activity

City Distance Mag. Time & Date
Minimum magnitude displayed is 2.5.

Coastal Water Temperatures

Place Temperature

Stations

Nearby Weather Stations

Station Location Temp. Windchill Dew Point Humidity Wind Precip. Elev Updated Type